createdAt,value
2022-10-12T00:01:12.633Z,24.14
2022-10-12T00:03:40.515Z,24.25
2022-10-12T00:06:20.137Z,24.31
2022-10-12T00:08:49.015Z,24.53
2022-10-12T00:11:26.426Z,24.57
2022-10-12T00:13:55.007Z,24.59
2022-10-12T00:16:24.135Z,24.57
2022-10-12T00:18:53.649Z,24.57
2022-10-12T00:21:22.348Z,24.24
2022-10-12T00:23:50.641Z,24.47
2022-10-12T00:26:21.731Z,24.40
2022-10-12T00:28:54.322Z,24.54
2022-10-12T00:31:22.082Z,24.41
2022-10-12T00:33:49.802Z,24.05
2022-10-12T00:36:19.312Z,24.54
2022-10-12T00:38:50.232Z,24.54
2022-10-12T00:41:20.681Z,24.54
2022-10-12T00:43:52.916Z,24.45
2022-10-12T00:46:42.691Z,24.15
2022-10-12T00:49:24.210Z,24.54
2022-10-12T00:51:57.646Z,24.53
2022-10-12T00:54:31.001Z,24.54
2022-10-12T00:57:01.612Z,24.55
2022-10-12T00:59:35.107Z,24.46
2022-10-12T01:02:02.965Z,24.53
2022-10-12T01:04:32.894Z,24.54
2022-10-12T01:07:01.132Z,24.33
2022-10-12T01:09:29.220Z,24.50
2022-10-12T01:11:58.496Z,24.52
2022-10-12T01:14:26.646Z,24.36
2022-10-12T01:17:03.243Z,24.31
2022-10-12T01:19:59.103Z,24.51
2022-10-12T01:22:29.308Z,23.89
2022-10-12T01:25:36.470Z,24.29
2022-10-12T01:28:13.903Z,23.98
2022-10-12T01:30:45.726Z,24.39
2022-10-12T01:33:22.552Z,24.46
2022-10-12T01:36:05.504Z,24.09
2022-10-12T01:38:53.711Z,24.37
2022-10-12T01:41:30.159Z,24.17
2022-10-12T01:43:57.850Z,24.12
2022-10-12T01:46:25.575Z,24.39
2022-10-12T01:48:59.808Z,24.27
2022-10-12T01:52:08.838Z,24.20
2022-10-12T01:54:42.773Z,24.39
2022-10-12T01:57:23.711Z,24.23
2022-10-12T02:00:01.510Z,24.38
2022-10-12T02:02:45.223Z,24.41
2022-10-12T02:05:24.916Z,24.41
2022-10-12T02:07:58.332Z,24.41
2022-10-12T02:10:45.279Z,24.34
2022-10-12T02:13:15.517Z,24.38
2022-10-12T02:15:45.088Z,23.87
2022-10-12T02:18:17.618Z,24.40
2022-10-12T02:20:51.214Z,24.15
2022-10-12T02:23:22.802Z,24.40
2022-10-12T02:25:52.998Z,24.13
2022-10-12T02:28:24.184Z,23.97
2022-10-12T02:31:16.201Z,24.29
2022-10-12T02:33:56.644Z,24.27
2022-10-12T02:36:34.643Z,23.74
2022-10-12T02:39:09.826Z,24.18
2022-10-12T02:41:43.895Z,24.14
2022-10-12T02:44:15.364Z,24.17
2022-10-12T02:46:45.294Z,24.04
2022-10-12T02:49:14.519Z,23.96
2022-10-12T02:51:44.951Z,24.35
2022-10-12T02:54:13.461Z,24.03
2022-10-12T02:56:47.735Z,24.36
2022-10-12T02:59:18.110Z,24.33
2022-10-12T03:01:46.334Z,24.30
2022-10-12T03:04:14.579Z,24.32
2022-10-12T03:06:45.554Z,24.22
2022-10-12T03:09:14.270Z,24.18
2022-10-12T03:11:44.877Z,24.08
2022-10-12T03:14:17.691Z,24.31
2022-10-12T03:16:46.866Z,24.18
2022-10-12T03:19:15.122Z,24.31
2022-10-12T03:21:42.666Z,23.82
2022-10-12T03:24:10.711Z,23.92
2022-10-12T03:26:38.260Z,23.90
2022-10-12T03:29:05.947Z,23.83
2022-10-12T03:31:33.649Z,24.18
2022-10-12T03:34:01.286Z,24.10
2022-10-12T03:36:28.915Z,24.19
2022-10-12T03:38:56.614Z,24.25
2022-10-12T03:41:24.431Z,24.25
2022-10-12T03:43:52.171Z,24.06
2022-10-12T03:46:19.797Z,23.95
2022-10-12T03:48:47.538Z,24.13
2022-10-12T03:51:15.372Z,24.10
2022-10-12T03:53:45.617Z,24.16
2022-10-12T03:56:13.682Z,23.89
2022-10-12T03:58:41.412Z,23.93
2022-10-12T04:01:09.801Z,23.97
2022-10-12T04:03:37.353Z,24.24
2022-10-12T04:06:05.512Z,23.96
2022-10-12T04:08:33.079Z,24.06
2022-10-12T04:11:00.917Z,23.95
2022-10-12T04:13:28.620Z,24.07
2022-10-12T04:16:01.845Z,24.24
2022-10-12T04:18:29.554Z,24.15
2022-10-12T04:20:57.453Z,23.99
2022-10-12T04:23:25.664Z,24.08
2022-10-12T04:25:53.315Z,24.10
2022-10-12T04:28:21.279Z,24.24
2022-10-12T04:30:48.939Z,23.97
2022-10-12T04:33:16.762Z,23.86
2022-10-12T04:35:44.477Z,23.79
2022-10-12T04:38:13.434Z,24.16
2022-10-12T04:40:41.511Z,24.02
2022-10-12T04:43:09.312Z,24.19
2022-10-12T04:45:36.984Z,24.11
2022-10-12T04:48:04.722Z,24.03
2022-10-12T04:50:32.465Z,24.12
2022-10-12T04:53:00.087Z,23.81
2022-10-12T04:55:27.810Z,23.77
2022-10-12T04:57:55.517Z,23.74
2022-10-12T05:00:23.037Z,23.99
2022-10-12T05:02:50.837Z,24.23
2022-10-12T05:05:18.642Z,24.22
2022-10-12T05:07:46.290Z,23.97
2022-10-12T05:10:14.698Z,24.25
2022-10-12T05:12:43.802Z,24.26
2022-10-12T05:15:11.701Z,24.03
2022-10-12T05:17:40.004Z,24.11
2022-10-12T05:20:08.765Z,24.24
2022-10-12T05:22:36.421Z,23.93
2022-10-12T05:25:05.325Z,23.86
2022-10-12T05:27:33.190Z,24.15
2022-10-12T05:30:01.006Z,23.98
2022-10-12T05:32:28.888Z,24.06
2022-10-12T05:34:56.474Z,23.78
2022-10-12T05:37:24.111Z,24.20
2022-10-12T05:39:52.136Z,23.90
2022-10-12T05:42:19.861Z,23.89
2022-10-12T05:44:47.615Z,24.13
2022-10-12T05:47:15.398Z,23.80
2022-10-12T05:49:43.073Z,23.86
2022-10-12T05:52:10.789Z,24.21
2022-10-12T05:54:39.022Z,23.66
2022-10-12T05:57:06.778Z,24.04
2022-10-12T05:59:35.592Z,24.00
2022-10-12T06:02:03.475Z,24.24
2022-10-12T06:04:31.056Z,23.99
2022-10-12T06:06:58.730Z,24.17
2022-10-12T06:09:26.846Z,24.24
2022-10-12T06:11:54.947Z,24.08
2022-10-12T06:14:22.688Z,24.22
2022-10-12T06:16:53.795Z,24.23
2022-10-12T06:19:22.545Z,24.03
2022-10-12T06:21:50.203Z,24.16
2022-10-12T06:24:18.036Z,24.19
2022-10-12T06:26:45.816Z,24.14
2022-10-12T06:29:13.837Z,23.93
2022-10-12T06:31:41.660Z,24.23
2022-10-12T06:34:09.384Z,24.25
2022-10-12T06:36:37.050Z,23.84
2022-10-12T06:39:04.582Z,24.25
2022-10-12T06:41:32.311Z,23.88
2022-10-12T06:43:59.829Z,24.26
2022-10-12T06:46:27.733Z,24.29
2022-10-12T06:48:55.316Z,24.28
2022-10-12T06:51:22.881Z,24.27
2022-10-12T06:53:50.881Z,23.92
2022-10-12T06:56:18.606Z,24.14
2022-10-12T06:58:46.934Z,24.25
2022-10-12T07:01:14.787Z,24.27
2022-10-12T07:03:42.525Z,24.02
2022-10-12T07:06:13.337Z,24.15
2022-10-12T07:08:41.663Z,24.16
2022-10-12T07:11:12.422Z,24.26
2022-10-12T07:13:40.100Z,23.67
2022-10-12T07:16:08.429Z,24.12
2022-10-12T07:18:36.232Z,24.26
2022-10-12T07:21:04.238Z,23.94
2022-10-12T07:23:33.573Z,24.31
2022-10-12T07:26:01.815Z,24.32
2022-10-12T07:28:29.633Z,24.33
2022-10-12T07:31:04.705Z,24.33
2022-10-12T07:33:36.894Z,24.32
2022-10-12T07:36:15.679Z,24.29
2022-10-12T07:38:48.766Z,24.26
2022-10-12T07:41:17.032Z,24.34
2022-10-12T07:43:45.093Z,23.92
2022-10-12T07:46:12.864Z,24.45
2022-10-12T07:48:48.916Z,24.49
2022-10-12T07:51:18.620Z,24.50
2022-10-12T07:53:47.036Z,24.51
2022-10-12T07:56:17.618Z,24.32
2022-10-12T07:58:56.748Z,24.38
2022-10-12T08:01:28.158Z,24.43
2022-10-12T08:04:01.000Z,24.51
2022-10-12T08:06:31.989Z,24.28
2022-10-12T08:09:01.401Z,24.60
2022-10-12T08:11:29.438Z,24.61
2022-10-12T08:13:57.214Z,24.23
2022-10-12T08:16:24.860Z,24.63
2022-10-12T08:18:52.472Z,24.62
2022-10-12T08:21:20.674Z,24.68
2022-10-12T08:23:48.822Z,24.65
2022-10-12T08:26:16.571Z,24.64
2022-10-12T08:28:44.655Z,24.78
2022-10-12T08:31:16.875Z,24.81
2022-10-12T08:33:44.756Z,24.72
2022-10-12T08:36:12.637Z,24.62
2022-10-12T08:38:40.384Z,24.63
2022-10-12T08:41:31.239Z,24.76
2022-10-12T08:43:58.824Z,24.74
2022-10-12T08:46:29.901Z,24.59
2022-10-12T08:48:57.353Z,24.72
2022-10-12T08:51:29.174Z,24.40
2022-10-12T08:53:57.043Z,24.72
2022-10-12T08:56:24.933Z,23.93
2022-10-12T08:58:54.413Z,24.29
2022-10-12T09:01:37.482Z,24.45
2022-10-12T09:04:14.684Z,24.77
2022-10-12T09:06:54.474Z,24.77
2022-10-12T09:09:52.707Z,24.78
2022-10-12T09:12:23.229Z,24.77
2022-10-12T09:14:57.369Z,24.37
2022-10-12T09:17:42.608Z,24.36
2022-10-12T09:20:24.023Z,24.81
2022-10-12T09:22:55.783Z,24.69
2022-10-12T09:25:28.910Z,24.86
2022-10-12T09:28:14.407Z,24.51
2022-10-12T09:31:18.188Z,24.88
2022-10-12T09:33:58.542Z,24.72
2022-10-12T09:36:31.093Z,24.62
2022-10-12T09:39:02.419Z,24.72
2022-10-12T09:41:35.993Z,24.88
2022-10-12T09:44:05.390Z,24.74
2022-10-12T09:46:41.874Z,24.10
2022-10-12T09:49:09.560Z,24.55
2022-10-12T09:51:37.800Z,24.62
2022-10-12T09:54:06.571Z,24.70
2022-10-12T09:56:41.409Z,24.97
2022-10-12T09:59:24.305Z,24.88
2022-10-12T10:02:13.830Z,24.79
2022-10-12T10:04:43.184Z,25.03
2022-10-12T10:07:33.698Z,24.83
2022-10-12T10:10:04.296Z,25.05
2022-10-12T10:12:32.125Z,24.76
2022-10-12T10:15:00.149Z,25.00
2022-10-12T10:17:34.773Z,25.07
2022-10-12T10:20:06.318Z,25.07
2022-10-12T10:22:34.127Z,24.38
2022-10-12T10:25:02.710Z,24.99
2022-10-12T10:27:39.191Z,24.99
2022-10-12T10:30:29.596Z,25.10
2022-10-12T10:33:18.617Z,25.13
2022-10-12T10:36:01.134Z,25.13
2022-10-12T10:38:33.079Z,25.13
2022-10-12T10:41:06.796Z,25.13
2022-10-12T10:43:35.472Z,25.11
2022-10-12T10:46:04.814Z,24.90
2022-10-12T10:48:56.533Z,25.10
2022-10-12T10:51:44.764Z,24.71
2022-10-12T10:54:27.448Z,24.87
2022-10-12T10:57:05.035Z,24.74
2022-10-12T10:59:54.482Z,25.20
2022-10-12T11:02:37.298Z,25.21
2022-10-12T11:05:12.466Z,25.18
2022-10-12T11:07:48.546Z,25.25
2022-10-12T11:10:42.360Z,25.26
2022-10-12T11:13:20.442Z,25.27
2022-10-12T11:15:54.396Z,25.27
2022-10-12T11:18:50.427Z,24.97
2022-10-12T11:21:26.716Z,25.30
2022-10-12T11:24:01.878Z,24.20
2022-10-12T11:26:38.179Z,25.27
2022-10-12T11:29:06.737Z,24.91
2022-10-12T11:31:39.961Z,25.35
2022-10-12T11:34:13.688Z,24.98
2022-10-12T11:37:07.544Z,25.34
2022-10-12T11:39:43.020Z,25.37
2022-10-12T11:42:21.922Z,25.38
2022-10-12T11:44:50.601Z,25.40
2022-10-12T11:47:31.552Z,25.41
2022-10-12T11:50:21.122Z,25.44
2022-10-12T11:52:52.267Z,25.32
2022-10-12T11:56:09.048Z,25.48
2022-10-12T11:58:59.952Z,25.48
2022-10-12T12:01:35.558Z,25.48
2022-10-12T12:04:22.700Z,25.46
2022-10-12T12:07:03.356Z,24.81
2022-10-12T12:09:46.507Z,25.43
2022-10-12T12:12:26.774Z,25.36
2022-10-12T12:14:54.264Z,25.41
2022-10-12T12:17:22.041Z,25.43
2022-10-12T12:19:56.793Z,25.20
2022-10-12T12:22:34.794Z,25.42
2022-10-12T12:25:10.497Z,25.49
2022-10-12T12:27:46.751Z,25.49
2022-10-12T12:30:21.304Z,25.46
2022-10-12T12:32:53.202Z,25.34
2022-10-12T12:35:41.020Z,25.30
2022-10-12T12:38:19.051Z,24.82
2022-10-12T12:40:57.459Z,25.33
2022-10-12T12:43:31.147Z,25.37
2022-10-12T12:46:09.098Z,25.16
2022-10-12T12:48:40.115Z,25.42
2022-10-12T12:51:21.930Z,25.43
2022-10-12T12:53:58.808Z,25.42
2022-10-12T12:56:29.831Z,25.42
2022-10-12T12:59:35.967Z,25.43
2022-10-12T13:02:13.019Z,25.45
2022-10-12T13:05:18.826Z,25.47
2022-10-12T13:08:23.815Z,25.49
2022-10-12T13:11:16.528Z,25.23
2022-10-12T13:14:12.742Z,25.33
2022-10-12T13:19:49.077Z,25.58
2022-10-12T13:22:28.721Z,25.44
2022-10-12T13:25:04.642Z,25.57
2022-10-12T13:27:47.352Z,25.50
2022-10-12T13:30:27.268Z,25.58
2022-10-12T13:33:15.175Z,25.44
2022-10-12T13:36:11.220Z,25.60
2022-10-12T13:38:39.559Z,25.29
2022-10-12T13:41:19.433Z,25.38
2022-10-12T13:44:07.250Z,25.60
2022-10-12T13:46:44.556Z,25.58
2022-10-12T13:49:16.129Z,25.59
2022-10-12T13:51:49.587Z,25.33
2022-10-12T13:54:22.259Z,25.64
2022-10-12T13:57:03.254Z,25.60
2022-10-12T13:59:36.753Z,25.49
2022-10-12T14:02:26.022Z,25.63
2022-10-12T14:04:59.233Z,25.62
2022-10-12T14:07:37.146Z,25.49
2022-10-12T14:10:08.747Z,25.53
2022-10-12T14:12:37.480Z,25.51
2022-10-12T14:15:06.626Z,25.45
2022-10-12T14:17:41.699Z,25.58
2022-10-12T14:20:29.841Z,25.57
2022-10-12T14:22:59.766Z,25.52
2022-10-12T14:25:29.687Z,25.53
2022-10-12T14:28:07.468Z,25.54
2022-10-12T14:30:39.482Z,25.54
2022-10-12T14:33:10.226Z,25.56
2022-10-12T14:35:39.005Z,25.56
2022-10-12T14:38:39.078Z,25.27
2022-10-12T14:41:28.580Z,25.53
2022-10-12T14:44:27.138Z,25.47
2022-10-12T14:47:10.791Z,25.41
2022-10-12T14:49:41.746Z,25.30
2022-10-12T14:52:20.282Z,25.28
2022-10-12T14:54:53.003Z,25.52
2022-10-12T14:57:21.496Z,25.35
2022-10-12T14:59:49.639Z,25.44
2022-10-12T15:02:24.602Z,25.44
2022-10-12T15:04:52.570Z,25.51
2022-10-12T15:07:23.675Z,25.25
2022-10-12T15:09:51.750Z,25.47
2022-10-12T15:12:22.051Z,25.44
2022-10-12T15:14:51.429Z,25.40
2022-10-12T15:17:19.858Z,25.15
2022-10-12T15:19:49.280Z,25.44
2022-10-12T15:22:22.459Z,25.13
2022-10-12T15:24:51.597Z,25.43
2022-10-12T15:27:19.505Z,25.46
2022-10-12T15:29:48.286Z,25.11
2022-10-12T15:32:18.872Z,25.47
2022-10-12T15:34:46.708Z,25.39
2022-10-12T15:37:14.472Z,25.09
2022-10-12T15:39:43.026Z,25.49
2022-10-12T15:42:12.550Z,25.39
2022-10-12T15:44:41.499Z,25.49
2022-10-12T15:47:11.444Z,25.31
2022-10-12T15:49:39.267Z,25.26
2022-10-12T15:52:11.541Z,25.44
2022-10-12T15:54:40.002Z,25.33
2022-10-12T15:57:07.749Z,25.42
2022-10-12T15:59:36.267Z,25.45
2022-10-12T16:02:03.862Z,25.12
2022-10-12T16:04:31.471Z,25.47
2022-10-12T16:07:01.394Z,25.48
2022-10-12T16:09:28.972Z,25.33
2022-10-12T16:11:56.767Z,25.25
2022-10-12T16:14:24.553Z,25.37
2022-10-12T16:16:52.364Z,25.41
2022-10-12T16:19:20.168Z,25.09
2022-10-12T16:21:47.705Z,25.37
2022-10-12T16:24:15.279Z,25.62
2022-10-12T16:26:45.057Z,25.23
2022-10-12T16:29:12.806Z,25.59
2022-10-12T16:31:40.382Z,25.44
2022-10-12T16:34:08.195Z,24.73
2022-10-12T16:36:35.993Z,25.51
2022-10-12T16:39:03.924Z,25.58
2022-10-12T16:41:34.048Z,25.45
2022-10-12T16:44:02.161Z,25.33
2022-10-12T16:46:30.723Z,25.59
2022-10-12T16:48:58.285Z,25.58
2022-10-12T16:51:26.010Z,25.58
2022-10-12T16:53:54.553Z,25.34
2022-10-12T16:56:22.313Z,25.17
2022-10-12T16:58:49.892Z,25.23
2022-10-12T17:01:17.561Z,25.14
2022-10-12T17:03:45.323Z,25.33
2022-10-12T17:06:12.949Z,25.54
2022-10-12T17:08:40.562Z,25.53
2022-10-12T17:11:10.481Z,25.23
2022-10-12T17:13:38.930Z,25.39
2022-10-12T17:16:37.339Z,25.30
2022-10-12T17:19:05.161Z,25.49
2022-10-12T17:21:33.294Z,25.21
2022-10-12T17:24:01.945Z,25.41
2022-10-12T17:26:30.208Z,25.44
2022-10-12T17:28:57.989Z,25.15
2022-10-12T17:31:26.358Z,25.11
2022-10-12T17:33:54.375Z,25.43
2022-10-12T17:36:27.153Z,25.43
2022-10-12T17:38:57.762Z,25.14
2022-10-12T17:41:27.318Z,25.13
2022-10-12T17:43:55.225Z,25.25
2022-10-12T17:46:23.024Z,25.41
2022-10-12T17:48:51.219Z,25.21
2022-10-12T17:51:19.004Z,25.06
2022-10-12T17:53:46.715Z,25.14
2022-10-12T17:56:15.855Z,25.29
2022-10-12T17:58:43.651Z,25.14
2022-10-12T18:01:15.345Z,25.08
2022-10-12T18:03:46.231Z,25.30
2022-10-12T18:06:16.704Z,25.24
2022-10-12T18:08:44.882Z,25.38
2022-10-12T18:11:14.225Z,25.12
2022-10-12T18:13:49.598Z,25.17
2022-10-12T18:16:20.034Z,25.10
2022-10-12T18:18:52.683Z,25.35
2022-10-12T18:21:22.807Z,24.91
2022-10-12T18:23:51.414Z,25.36
2022-10-12T18:26:22.010Z,25.01
2022-10-12T18:28:51.797Z,25.41
2022-10-12T18:31:22.853Z,25.22
2022-10-12T18:33:50.794Z,25.44
2022-10-12T18:36:19.595Z,25.43
2022-10-12T18:38:47.380Z,25.42
2022-10-12T18:41:22.705Z,25.42
2022-10-12T18:44:15.771Z,25.32
2022-10-12T18:46:43.495Z,25.07
2022-10-12T18:49:11.764Z,25.41
2022-10-12T18:51:42.360Z,25.40
2022-10-12T18:54:13.133Z,25.30
2022-10-12T18:56:42.030Z,25.36
2022-10-12T18:59:12.153Z,25.37
2022-10-12T19:01:39.937Z,25.34
2022-10-12T19:04:07.906Z,25.33
2022-10-12T19:06:39.667Z,25.16
2022-10-12T19:09:07.502Z,25.31
2022-10-12T19:11:36.350Z,25.29
2022-10-12T19:14:13.797Z,25.19
2022-10-12T19:16:42.213Z,24.93
2022-10-12T19:19:19.685Z,24.95
2022-10-12T19:21:50.258Z,25.01
2022-10-12T19:24:19.839Z,25.28
2022-10-12T19:26:48.447Z,25.20
2022-10-12T19:29:16.253Z,24.97
2022-10-12T19:31:46.773Z,25.26
2022-10-12T19:34:18.718Z,25.24
2022-10-12T19:36:47.037Z,25.21
2022-10-12T19:39:19.520Z,25.25
2022-10-12T19:41:48.019Z,25.26
2022-10-12T19:44:16.001Z,25.27
2022-10-12T19:46:47.317Z,25.20
2022-10-12T19:49:17.110Z,25.06
2022-10-12T19:51:45.192Z,24.90
2022-10-12T19:54:14.615Z,25.06
2022-10-12T19:56:42.296Z,25.01
2022-10-12T19:59:09.923Z,25.22
2022-10-12T20:01:39.734Z,25.22
2022-10-12T20:04:10.119Z,25.05
2022-10-12T20:06:38.720Z,24.88
2022-10-12T20:09:07.866Z,25.24
2022-10-12T20:11:36.577Z,25.11
2022-10-12T20:14:04.887Z,25.25
2022-10-12T20:16:35.151Z,24.89
2022-10-12T20:19:05.189Z,25.18
2022-10-12T20:21:33.187Z,24.84
2022-10-12T20:24:00.813Z,25.05
2022-10-12T20:26:29.067Z,25.26
2022-10-12T20:28:56.801Z,24.99
2022-10-12T20:31:25.132Z,24.93
2022-10-12T20:33:53.410Z,25.20
2022-10-12T20:36:28.503Z,25.27
2022-10-12T20:38:57.760Z,24.98
2022-10-12T20:41:26.500Z,25.19
2022-10-12T20:43:57.444Z,25.27
2022-10-12T20:46:26.458Z,25.23
2022-10-12T20:48:58.840Z,25.09
2022-10-12T20:51:30.368Z,25.33
2022-10-12T20:54:00.667Z,25.33
2022-10-12T20:56:30.156Z,25.18
2022-10-12T20:58:59.171Z,25.25
2022-10-12T21:01:26.905Z,25.08
2022-10-12T21:03:56.303Z,25.23
2022-10-12T21:06:24.810Z,25.30
2022-10-12T21:08:54.679Z,24.97
2022-10-12T21:11:23.360Z,25.31
2022-10-12T21:13:51.252Z,25.30
2022-10-12T21:16:19.242Z,25.19
2022-10-12T21:18:47.252Z,24.96
2022-10-12T21:21:19.475Z,25.01
2022-10-12T21:23:58.661Z,25.06
2022-10-12T21:26:30.146Z,25.22
2022-10-12T21:29:01.268Z,25.17
2022-10-12T21:31:32.289Z,24.82
2022-10-12T21:34:02.224Z,25.16
2022-10-12T21:36:31.600Z,25.01
2022-10-12T21:38:59.472Z,25.21
2022-10-12T21:41:29.237Z,25.12
2022-10-12T21:43:57.633Z,25.21
2022-10-12T21:46:31.352Z,25.13
2022-10-12T21:49:00.898Z,25.13
2022-10-12T21:51:31.094Z,24.84
2022-10-12T21:53:59.465Z,24.86
2022-10-12T21:56:30.744Z,25.12
2022-10-12T21:59:00.558Z,25.20
2022-10-12T22:01:31.498Z,24.76
2022-10-12T22:04:00.605Z,25.10
2022-10-12T22:06:29.746Z,25.18
2022-10-12T22:09:00.469Z,25.17
2022-10-12T22:11:31.485Z,25.16
2022-10-12T22:14:03.118Z,25.17
2022-10-12T22:16:31.587Z,25.01
2022-10-12T22:19:01.394Z,25.07
2022-10-12T22:21:36.312Z,25.15
2022-10-12T22:24:04.190Z,24.88
2022-10-12T22:26:32.096Z,25.14
2022-10-12T22:29:03.309Z,24.78
2022-10-12T22:31:31.208Z,24.80
2022-10-12T22:33:58.882Z,25.11
2022-10-12T22:36:28.947Z,24.82
2022-10-12T22:38:56.634Z,24.96
2022-10-12T22:41:24.763Z,24.82
2022-10-12T22:43:54.884Z,24.91
2022-10-12T22:46:24.325Z,25.10
2022-10-12T22:48:53.452Z,24.84
2022-10-12T22:51:31.876Z,25.09
2022-10-12T22:54:00.470Z,25.00
2022-10-12T22:56:28.880Z,25.08
2022-10-12T22:58:59.378Z,25.11
2022-10-12T23:01:27.830Z,25.09
2022-10-12T23:03:55.819Z,25.09
2022-10-12T23:06:24.304Z,25.07
2022-10-12T23:08:52.831Z,24.73
2022-10-12T23:11:26.262Z,24.99
2022-10-12T23:13:55.239Z,24.98
2022-10-12T23:16:28.660Z,25.06
2022-10-12T23:18:59.797Z,25.07
2022-10-12T23:21:30.225Z,24.76
2022-10-12T23:23:59.590Z,25.04
2022-10-12T23:26:28.707Z,24.85
2022-10-12T23:28:58.014Z,25.01
2022-10-12T23:31:28.694Z,24.99
2022-10-12T23:34:01.389Z,25.01
2022-10-12T23:36:30.500Z,25.02
2022-10-12T23:39:01.104Z,25.02
2022-10-12T23:41:29.101Z,24.56
2022-10-12T23:43:56.864Z,24.46
2022-10-12T23:46:24.587Z,24.87
2022-10-12T23:48:52.167Z,24.98
2022-10-12T23:51:20.314Z,24.97
2022-10-12T23:53:48.267Z,24.73
2022-10-12T23:56:15.941Z,24.95
2022-10-12T23:58:43.637Z,24.81
